John Murtha Johnstown Cambria County Airport Johnstown US
ICAO: KJST
IATA: JST
Category: Medium
Scheduled Services: Yes

Elevation: 2284 ft
TransAlt. 18000 ft.

Airport Communications:
ATIS:118.325
CLEVELAND CNTR:121.2
CTAF:125.75
GND:121.6
KEYSTONE OPS ARNG:36.5
ALTOONA RDO:122.65
TWR:125.75
UNICOM:122.95

KJST Zoom In..

If you have problems with the map follow the link
https://www.worldairports.se/pages/airport.php?
ICAO=KJST

Runways:

(A) RW 05 length 4386 ft width 100 ft
---- / hdg 49

(B) RW 15 length 7003 ft width 150 ft
---- / hdg 154

(C) RW 23 length 4386 ft width 100 ft
---- / hdg 229

(D) RW 33 length 7003 ft width 150 ft
ILS 110.10 / hdg 334

Location; KJST
Day. 19 / Time. 14.06 Zulu
* Altimeter: 30.04
* Temperature: 02° c. 35.6°f.
* Wind from: 100° Speed 03 kn.
Dewpoint: 01° c.
Visibility: M// Statute Miles.
Conditions: Fog.

KJST 191406Z AUTO 10003KT M1/4SM FG VV006 02/01 A3004 RMK AO2 T00170006


Wind From 100°
Speed 03 kn.

 
 
jpsmedia.com for Web Design worldairports.se 2018   terms of use